sensor_id;sensor_type;location;lat;lon;timestamp;temperature;humidity
23717;DHT22;22094;52.130;5.598;2023-02-15T00:00:53;0.70;99.90
23717;DHT22;22094;52.130;5.598;2023-02-15T00:03:22;0.70;99.90
23717;DHT22;22094;52.130;5.598;2023-02-15T00:05:47;0.60;99.90
23717;DHT22;22094;52.130;5.598;2023-02-15T00:08:13;0.60;99.90
23717;DHT22;22094;52.130;5.598;2023-02-15T00:10:38;0.60;99.90
23717;DHT22;22094;52.130;5.598;2023-02-15T00:13:04;0.60;99.90
23717;DHT22;22094;52.130;5.598;2023-02-15T00:15:30;0.60;99.90
23717;DHT22;22094;52.130;5.598;2023-02-15T00:17:57;0.60;99.90
23717;DHT22;22094;52.130;5.598;2023-02-15T00:20:22;0.50;99.90
23717;DHT22;22094;52.130;5.598;2023-02-15T00:22:48;0.50;99.90
23717;DHT22;22094;52.130;5.598;2023-02-15T00:25:13;0.50;99.90
23717;DHT22;22094;52.130;5.598;2023-02-15T00:27:39;0.40;99.90
23717;DHT22;22094;52.130;5.598;2023-02-15T00:30:05;0.50;99.90
23717;DHT22;22094;52.130;5.598;2023-02-15T00:32:31;0.40;99.90
23717;DHT22;22094;52.130;5.598;2023-02-15T00:34:57;0.30;99.90
23717;DHT22;22094;52.130;5.598;2023-02-15T00:37:22;0.30;99.90
23717;DHT22;22094;52.130;5.598;2023-02-15T00:39:48;0.20;99.90
23717;DHT22;22094;52.130;5.598;2023-02-15T00:42:13;0.20;99.90
23717;DHT22;22094;52.130;5.598;2023-02-15T00:44:39;0.20;99.90
23717;DHT22;22094;52.130;5.598;2023-02-15T00:47:04;0.50;99.90
23717;DHT22;22094;52.130;5.598;2023-02-15T00:49:30;0.10;99.90
23717;DHT22;22094;52.130;5.598;2023-02-15T00:51:55;0.00;99.90
23717;DHT22;22094;52.130;5.598;2023-02-15T00:54:21;0.00;99.90
23717;DHT22;22094;52.130;5.598;2023-02-15T00:56:46;0.00;99.90
23717;DHT22;22094;52.130;5.598;2023-02-15T00:59:12;0.00;99.90
23717;DHT22;22094;52.130;5.598;2023-02-15T01:01:38;0.00;99.90
23717;DHT22;22094;52.130;5.598;2023-02-15T01:04:03;0.00;99.90
23717;DHT22;22094;52.130;5.598;2023-02-15T01:06:29;0.00;99.90
23717;DHT22;22094;52.130;5.598;2023-02-15T01:08:55;-0.10;99.90
23717;DHT22;22094;52.130;5.598;2023-02-15T01:11:23;-0.10;99.90
23717;DHT22;22094;52.130;5.598;2023-02-15T01:13:51;-0.10;99.90
23717;DHT22;22094;52.130;5.598;2023-02-15T01:16:17;-0.20;99.90
23717;DHT22;22094;52.130;5.598;2023-02-15T01:18:43;-0.20;99.90
23717;DHT22;22094;52.130;5.598;2023-02-15T01:21:15;-0.20;99.90
23717;DHT22;22094;52.130;5.598;2023-02-15T01:23:41;-0.20;99.90
23717;DHT22;22094;52.130;5.598;2023-02-15T01:26:08;-0.20;99.90
23717;DHT22;22094;52.130;5.598;2023-02-15T01:28:33;-0.30;99.90
23717;DHT22;22094;52.130;5.598;2023-02-15T01:30:59;-0.30;99.90
23717;DHT22;22094;52.130;5.598;2023-02-15T01:33:29;-0.20;99.90
23717;DHT22;22094;52.130;5.598;2023-02-15T01:35:58;-0.20;99.90
23717;DHT22;22094;52.130;5.598;2023-02-15T01:38:23;-0.10;99.90
23717;DHT22;22094;52.130;5.598;2023-02-15T01:40:53;-0.10;99.90
23717;DHT22;22094;52.130;5.598;2023-02-15T01:43:19;0.00;99.90
23717;DHT22;22094;52.130;5.598;2023-02-15T01:45:47;0.00;99.90
23717;DHT22;22094;52.130;5.598;2023-02-15T01:48:23;0.00;99.90
23717;DHT22;22094;52.130;5.598;2023-02-15T01:50:54;-0.10;99.90
23717;DHT22;22094;52.130;5.598;2023-02-15T01:53:53;-0.10;99.90
23717;DHT22;22094;52.130;5.598;2023-02-15T01:56:22;-0.20;99.90
23717;DHT22;22094;52.130;5.598;2023-02-15T01:58:50;-0.30;99.90
23717;DHT22;22094;52.130;5.598;2023-02-15T02:01:18;-0.30;99.90
23717;DHT22;22094;52.130;5.598;2023-02-15T02:04:09;0.30;99.90
23717;DHT22;22094;52.130;5.598;2023-02-15T02:06:37;-0.40;99.90
23717;DHT22;22094;52.130;5.598;2023-02-15T02:09:04;-0.40;99.90
23717;DHT22;22094;52.130;5.598;2023-02-15T02:11:30;-0.20;99.90
23717;DHT22;22094;52.130;5.598;2023-02-15T02:13:56;-0.40;99.90
23717;DHT22;22094;52.130;5.598;2023-02-15T02:16:40;-0.40;99.90
23717;DHT22;22094;52.130;5.598;2023-02-15T02:25:06;-0.40;99.90
23717;DHT22;22094;52.130;5.598;2023-02-15T02:27:50;-0.50;99.90
23717;DHT22;22094;52.130;5.598;2023-02-15T02:38:53;-0.70;99.90
23717;DHT22;22094;52.130;5.598;2023-02-15T02:49:16;-0.80;99.90
23717;DHT22;22094;52.130;5.598;2023-02-15T02:51:41;-0.80;99.90
23717;DHT22;22094;52.130;5.598;2023-02-15T02:54:07;-0.80;99.90
23717;DHT22;22094;52.130;5.598;2023-02-15T02:56:43;-0.80;99.90
23717;DHT22;22094;52.130;5.598;2023-02-15T02:59:36;-0.70;99.90
23717;DHT22;22094;52.130;5.598;2023-02-15T03:02:10;-0.80;99.90
23717;DHT22;22094;52.130;5.598;2023-02-15T03:04:43;-0.90;99.90
23717;DHT22;22094;52.130;5.598;2023-02-15T03:07:17;-0.90;99.90
23717;DHT22;22094;52.130;5.598;2023-02-15T03:09:50;-0.80;99.90
23717;DHT22;22094;52.130;5.598;2023-02-15T03:12:20;-0.90;99.90
23717;DHT22;22094;52.130;5.598;2023-02-15T03:14:50;-0.90;99.90
23717;DHT22;22094;52.130;5.598;2023-02-15T03:17:17;-0.70;99.90
23717;DHT22;22094;52.130;5.598;2023-02-15T03:19:45;-1.00;99.90
23717;DHT22;22094;52.130;5.598;2023-02-15T03:22:33;-1.00;99.90
23717;DHT22;22094;52.130;5.598;2023-02-15T03:25:10;-1.00;99.90
23717;DHT22;22094;52.130;5.598;2023-02-15T03:27:40;-1.10;99.90
23717;DHT22;22094;52.130;5.598;2023-02-15T03:30:08;-1.10;99.90
23717;DHT22;22094;52.130;5.598;2023-02-15T03:32:37;-1.10;99.90
23717;DHT22;22094;52.130;5.598;2023-02-15T03:35:04;-1.10;99.90
23717;DHT22;22094;52.130;5.598;2023-02-15T03:37:53;-1.10;99.90
23717;DHT22;22094;52.130;5.598;2023-02-15T03:40:28;-1.10;99.90
23717;DHT22;22094;52.130;5.598;2023-02-15T03:45:52;-1.20;99.90
23717;DHT22;22094;52.130;5.598;2023-02-15T03:48:28;-1.20;99.90
23717;DHT22;22094;52.130;5.598;2023-02-15T03:50:58;-0.80;99.90
23717;DHT22;22094;52.130;5.598;2023-02-15T03:53:46;-1.30;99.90
23717;DHT22;22094;52.130;5.598;2023-02-15T03:56:13;-1.30;99.90
23717;DHT22;22094;52.130;5.598;2023-02-15T03:58:38;-1.30;99.90
23717;DHT22;22094;52.130;5.598;2023-02-15T04:01:40;-1.30;99.90
23717;DHT22;22094;52.130;5.598;2023-02-15T04:04:31;-1.30;99.90
23717;DHT22;22094;52.130;5.598;2023-02-15T04:06:58;-1.30;99.90
23717;DHT22;22094;52.130;5.598;2023-02-15T04:09:27;-1.40;99.90
23717;DHT22;22094;52.130;5.598;2023-02-15T04:12:11;-1.30;99.90
23717;DHT22;22094;52.130;5.598;2023-02-15T04:14:36;-1.30;99.90
23717;DHT22;22094;52.130;5.598;2023-02-15T04:17:21;-1.40;99.90
23717;DHT22;22094;52.130;5.598;2023-02-15T04:19:46;-1.30;99.90
23717;DHT22;22094;52.130;5.598;2023-02-15T04:22:31;-1.30;99.90
23717;DHT22;22094;52.130;5.598;2023-02-15T04:25:15;-1.40;99.90
23717;DHT22;22094;52.130;5.598;2023-02-15T04:27:52;-1.50;99.90
23717;DHT22;22094;52.130;5.598;2023-02-15T04:30:24;-1.40;99.90
23717;DHT22;22094;52.130;5.598;2023-02-15T04:32:49;-1.40;99.90
23717;DHT22;22094;52.130;5.598;2023-02-15T04:35:15;-1.30;99.90
23717;DHT22;22094;52.130;5.598;2023-02-15T04:37:42;-1.30;99.90
23717;DHT22;22094;52.130;5.598;2023-02-15T04:40:10;-1.40;99.90
23717;DHT22;22094;52.130;5.598;2023-02-15T04:42:35;-1.50;99.90
23717;DHT22;22094;52.130;5.598;2023-02-15T04:45:01;-1.50;99.90
23717;DHT22;22094;52.130;5.598;2023-02-15T04:47:27;-1.40;99.90
23717;DHT22;22094;52.130;5.598;2023-02-15T04:49:53;-1.40;99.90
23717;DHT22;22094;52.130;5.598;2023-02-15T04:52:18;-1.40;99.90
23717;DHT22;22094;52.130;5.598;2023-02-15T04:54:44;-1.50;99.90
23717;DHT22;22094;52.130;5.598;2023-02-15T04:57:10;-1.50;99.90
23717;DHT22;22094;52.130;5.598;2023-02-15T04:59:35;-1.50;99.90
23717;DHT22;22094;52.130;5.598;2023-02-15T05:02:01;-1.50;99.90
23717;DHT22;22094;52.130;5.598;2023-02-15T05:04:27;-1.50;99.90
23717;DHT22;22094;52.130;5.598;2023-02-15T05:06:52;-1.50;99.90
23717;DHT22;22094;52.130;5.598;2023-02-15T05:09:18;-1.40;99.90
23717;DHT22;22094;52.130;5.598;2023-02-15T05:11:43;-1.50;99.90
23717;DHT22;22094;52.130;5.598;2023-02-15T05:14:09;-1.50;99.90
23717;DHT22;22094;52.130;5.598;2023-02-15T05:16:34;-1.50;99.90
23717;DHT22;22094;52.130;5.598;2023-02-15T05:19:00;-1.40;99.90
23717;DHT22;22094;52.130;5.598;2023-02-15T05:21:26;-1.60;99.90
23717;DHT22;22094;52.130;5.598;2023-02-15T05:23:51;-1.70;99.90
23717;DHT22;22094;52.130;5.598;2023-02-15T05:26:20;-1.70;99.90
23717;DHT22;22094;52.130;5.598;2023-02-15T05:29:05;-1.80;99.90
23717;DHT22;22094;52.130;5.598;2023-02-15T05:31:31;-1.70;99.90
23717;DHT22;22094;52.130;5.598;2023-02-15T05:33:57;-1.70;99.90
23717;DHT22;22094;52.130;5.598;2023-02-15T05:36:22;-1.80;99.90
23717;DHT22;22094;52.130;5.598;2023-02-15T05:38:48;-1.80;99.90
23717;DHT22;22094;52.130;5.598;2023-02-15T05:41:14;-1.90;99.90
23717;DHT22;22094;52.130;5.598;2023-02-15T05:43:40;-1.90;99.90
23717;DHT22;22094;52.130;5.598;2023-02-15T05:46:06;-1.90;99.90
23717;DHT22;22094;52.130;5.598;2023-02-15T05:48:32;-1.90;99.90
23717;DHT22;22094;52.130;5.598;2023-02-15T05:53:29;-1.90;99.90
23717;DHT22;22094;52.130;5.598;2023-02-15T05:55:55;-1.90;99.90
23717;DHT22;22094;52.130;5.598;2023-02-15T05:58:28;-2.00;99.90
23717;DHT22;22094;52.130;5.598;2023-02-15T06:00:54;-2.00;99.90
23717;DHT22;22094;52.130;5.598;2023-02-15T06:03:20;-2.10;99.90
23717;DHT22;22094;52.130;5.598;2023-02-15T06:05:45;-2.10;99.90
23717;DHT22;22094;52.130;5.598;2023-02-15T06:08:11;-2.20;99.90
23717;DHT22;22094;52.130;5.598;2023-02-15T06:10:36;-2.30;99.90
23717;DHT22;22094;52.130;5.598;2023-02-15T06:13:02;-2.30;99.90
23717;DHT22;22094;52.130;5.598;2023-02-15T06:15:27;-2.10;99.90
23717;DHT22;22094;52.130;5.598;2023-02-15T06:17:53;-1.90;99.90
23717;DHT22;22094;52.130;5.598;2023-02-15T06:20:19;-1.70;99.90
23717;DHT22;22094;52.130;5.598;2023-02-15T06:22:44;-1.70;99.90
23717;DHT22;22094;52.130;5.598;2023-02-15T06:25:10;-1.70;99.90
23717;DHT22;22094;52.130;5.598;2023-02-15T06:27:37;-1.70;99.90
23717;DHT22;22094;52.130;5.598;2023-02-15T06:30:05;-1.70;99.90
23717;DHT22;22094;52.130;5.598;2023-02-15T06:32:31;-1.70;99.90
23717;DHT22;22094;52.130;5.598;2023-02-15T06:34:57;-1.70;99.90
23717;DHT22;22094;52.130;5.598;2023-02-15T06:37:22;-1.60;99.90
23717;DHT22;22094;52.130;5.598;2023-02-15T06:39:48;-1.70;99.90
23717;DHT22;22094;52.130;5.598;2023-02-15T06:42:14;-1.70;99.90
23717;DHT22;22094;52.130;5.598;2023-02-15T06:44:42;-1.80;99.90
23717;DHT22;22094;52.130;5.598;2023-02-15T06:47:08;-1.70;99.90
23717;DHT22;22094;52.130;5.598;2023-02-15T06:49:34;-1.80;99.90
23717;DHT22;22094;52.130;5.598;2023-02-15T06:51:59;-1.80;99.90
23717;DHT22;22094;52.130;5.598;2023-02-15T06:54:25;-1.60;99.90
23717;DHT22;22094;52.130;5.598;2023-02-15T06:56:50;-1.50;99.90
23717;DHT22;22094;52.130;5.598;2023-02-15T06:59:16;-1.60;99.90
23717;DHT22;22094;52.130;5.598;2023-02-15T07:01:41;-1.50;99.90
23717;DHT22;22094;52.130;5.598;2023-02-15T07:04:07;-1.50;99.90
23717;DHT22;22094;52.130;5.598;2023-02-15T07:06:33;-1.60;99.90
23717;DHT22;22094;52.130;5.598;2023-02-15T07:08:59;-1.60;99.90
23717;DHT22;22094;52.130;5.598;2023-02-15T07:11:25;-1.60;99.90
23717;DHT22;22094;52.130;5.598;2023-02-15T07:14:09;-1.60;99.90
23717;DHT22;22094;52.130;5.598;2023-02-15T07:16:35;-1.40;99.90
23717;DHT22;22094;52.130;5.598;2023-02-15T07:19:01;-1.20;99.90
23717;DHT22;22094;52.130;5.598;2023-02-15T07:21:27;-0.90;99.90
23717;DHT22;22094;52.130;5.598;2023-02-15T07:23:56;-0.80;99.90
23717;DHT22;22094;52.130;5.598;2023-02-15T07:26:23;-0.80;99.90
23717;DHT22;22094;52.130;5.598;2023-02-15T07:28:48;-0.70;99.90
23717;DHT22;22094;52.130;5.598;2023-02-15T07:31:14;-0.70;99.90
23717;DHT22;22094;52.130;5.598;2023-02-15T07:33:40;-0.70;99.90
23717;DHT22;22094;52.130;5.598;2023-02-15T07:36:06;-0.30;99.90
23717;DHT22;22094;52.130;5.598;2023-02-15T07:38:33;-0.60;99.90
23717;DHT22;22094;52.130;5.598;2023-02-15T07:41:05;-0.50;99.90
23717;DHT22;22094;52.130;5.598;2023-02-15T07:43:34;-0.20;99.90
23717;DHT22;22094;52.130;5.598;2023-02-15T07:46:01;1.40;99.90
23717;DHT22;22094;52.130;5.598;2023-02-15T07:48:27;1.40;99.90
23717;DHT22;22094;52.130;5.598;2023-02-15T07:53:18;-0.50;99.90
23717;DHT22;22094;52.130;5.598;2023-02-15T07:55:44;0.10;99.90
23717;DHT22;22094;52.130;5.598;2023-02-15T07:58:10;-0.10;99.90
23717;DHT22;22094;52.130;5.598;2023-02-15T08:00:36;-1.70;99.90
23717;DHT22;22094;52.130;5.598;2023-02-15T08:03:25;0.10;99.90
23717;DHT22;22094;52.130;5.598;2023-02-15T08:05:58;0.20;99.90
23717;DHT22;22094;52.130;5.598;2023-02-15T08:08:25;0.30;99.90
23717;DHT22;22094;52.130;5.598;2023-02-15T08:11:03;0.70;99.90
23717;DHT22;22094;52.130;5.598;2023-02-15T08:13:52;1.80;99.90
23717;DHT22;22094;52.130;5.598;2023-02-15T08:16:41;-1.50;99.90
23717;DHT22;22094;52.130;5.598;2023-02-15T08:19:16;0.60;99.90
23717;DHT22;22094;52.130;5.598;2023-02-15T08:21:44;1.00;99.90
23717;DHT22;22094;52.130;5.598;2023-02-15T08:24:11;-1.30;99.90
23717;DHT22;22094;52.130;5.598;2023-02-15T08:26:37;1.40;99.90
23717;DHT22;22094;52.130;5.598;2023-02-15T08:29:04;2.20;99.90
23717;DHT22;22094;52.130;5.598;2023-02-15T08:31:30;2.50;99.90
23717;DHT22;22094;52.130;5.598;2023-02-15T08:33:56;-0.10;99.90
23717;DHT22;22094;52.130;5.598;2023-02-15T08:36:25;2.00;99.90
23717;DHT22;22094;52.130;5.598;2023-02-15T08:38:51;1.90;99.90
23717;DHT22;22094;52.130;5.598;2023-02-15T08:41:28;2.30;99.90
23717;DHT22;22094;52.130;5.598;2023-02-15T08:43:56;2.30;99.90
23717;DHT22;22094;52.130;5.598;2023-02-15T08:46:24;4.50;99.90
23717;DHT22;22094;52.130;5.598;2023-02-15T08:48:51;3.00;99.90
23717;DHT22;22094;52.130;5.598;2023-02-15T08:51:19;3.20;99.90
23717;DHT22;22094;52.130;5.598;2023-02-15T08:53:48;3.50;99.90
23717;DHT22;22094;52.130;5.598;2023-02-15T08:56:14;0.80;99.90
23717;DHT22;22094;52.130;5.598;2023-02-15T08:58:40;3.40;99.90
23717;DHT22;22094;52.130;5.598;2023-02-15T09:01:17;3.40;99.90
23717;DHT22;22094;52.130;5.598;2023-02-15T09:03:44;3.50;99.90
23717;DHT22;22094;52.130;5.598;2023-02-15T09:08:37;6.50;99.90
23717;DHT22;22094;52.130;5.598;2023-02-15T09:11:14;5.90;99.90
23717;DHT22;22094;52.130;5.598;2023-02-15T09:13:42;1.80;99.90
23717;DHT22;22094;52.130;5.598;2023-02-15T09:16:09;4.60;99.90
23717;DHT22;22094;52.130;5.598;2023-02-15T09:18:38;3.80;99.90
23717;DHT22;22094;52.130;5.598;2023-02-15T09:21:09;5.60;99.90
23717;DHT22;22094;52.130;5.598;2023-02-15T09:23:36;4.00;99.90
23717;DHT22;22094;52.130;5.598;2023-02-15T09:26:04;4.70;99.90
23717;DHT22;22094;52.130;5.598;2023-02-15T09:28:30;6.20;99.90
23717;DHT22;22094;52.130;5.598;2023-02-15T09:31:13;7.00;99.90
23717;DHT22;22094;52.130;5.598;2023-02-15T09:33:41;4.90;99.90
23717;DHT22;22094;52.130;5.598;2023-02-15T09:36:16;5.00;99.90
23717;DHT22;22094;52.130;5.598;2023-02-15T09:38:42;7.00;99.90
23717;DHT22;22094;52.130;5.598;2023-02-15T09:44:03;6.20;99.90
23717;DHT22;22094;52.130;5.598;2023-02-15T09:47:02;5.50;99.90
23717;DHT22;22094;52.130;5.598;2023-02-15T09:50:07;5.00;99.90
23717;DHT22;22094;52.130;5.598;2023-02-15T10:04:09;6.10;99.90
23717;DHT22;22094;52.130;5.598;2023-02-15T10:06:42;8.20;99.90
23717;DHT22;22094;52.130;5.598;2023-02-15T10:17:38;6.20;99.90
23717;DHT22;22094;52.130;5.598;2023-02-15T10:23:00;6.40;99.90
23717;DHT22;22094;52.130;5.598;2023-02-15T10:28:09;6.80;99.90
23717;DHT22;22094;52.130;5.598;2023-02-15T10:30:47;7.00;99.90
23717;DHT22;22094;52.130;5.598;2023-02-15T10:38:38;7.20;99.90
23717;DHT22;22094;52.130;5.598;2023-02-15T11:01:55;7.90;99.90
23717;DHT22;22094;52.130;5.598;2023-02-15T11:04:55;8.10;99.90
23717;DHT22;22094;52.130;5.598;2023-02-15T11:07:33;8.30;99.90
23717;DHT22;22094;52.130;5.598;2023-02-15T11:10:14;9.90;99.90
23717;DHT22;22094;52.130;5.598;2023-02-15T11:12:45;8.20;99.90
23717;DHT22;22094;52.130;5.598;2023-02-15T11:15:33;8.50;99.90
23717;DHT22;22094;52.130;5.598;2023-02-15T11:20:35;8.60;99.90
23717;DHT22;22094;52.130;5.598;2023-02-15T11:25:33;9.20;99.90
23717;DHT22;22094;52.130;5.598;2023-02-15T11:28:03;9.50;99.90
23717;DHT22;22094;52.130;5.598;2023-02-15T11:30:40;9.60;99.90
23717;DHT22;22094;52.130;5.598;2023-02-15T11:33:16;9.70;99.90
23717;DHT22;22094;52.130;5.598;2023-02-15T11:35:50;9.70;99.90
23717;DHT22;22094;52.130;5.598;2023-02-15T11:38:24;9.80;99.90
23717;DHT22;22094;52.130;5.598;2023-02-15T11:43:21;10.20;99.90
23717;DHT22;22094;52.130;5.598;2023-02-15T11:48:15;10.10;99.90
23717;DHT22;22094;52.130;5.598;2023-02-15T11:50:42;7.50;99.90
23717;DHT22;22094;52.130;5.598;2023-02-15T11:53:19;10.10;99.90
23717;DHT22;22094;52.130;5.598;2023-02-15T11:55:53;10.60;99.90
23717;DHT22;22094;52.130;5.598;2023-02-15T12:01:21;10.70;99.90
23717;DHT22;22094;52.130;5.598;2023-02-15T12:03:56;10.20;99.90
23717;DHT22;22094;52.130;5.598;2023-02-15T12:06:34;11.00;99.90
23717;DHT22;22094;52.130;5.598;2023-02-15T12:11:30;11.10;99.90
23717;DHT22;22094;52.130;5.598;2023-02-15T12:14:00;11.40;99.90
23717;DHT22;22094;52.130;5.598;2023-02-15T12:16:28;11.70;99.90
23717;DHT22;22094;52.130;5.598;2023-02-15T12:18:56;11.50;99.90
23717;DHT22;22094;52.130;5.598;2023-02-15T12:21:34;11.90;99.90
23717;DHT22;22094;52.130;5.598;2023-02-15T12:29:20;11.90;99.90
23717;DHT22;22094;52.130;5.598;2023-02-15T12:31:50;11.90;99.90
23717;DHT22;22094;52.130;5.598;2023-02-15T12:34:26;11.80;99.90
23717;DHT22;22094;52.130;5.598;2023-02-15T12:36:55;12.00;99.90
23717;DHT22;22094;52.130;5.598;2023-02-15T12:39:28;12.20;99.90
23717;DHT22;22094;52.130;5.598;2023-02-15T12:42:16;12.30;99.90
23717;DHT22;22094;52.130;5.598;2023-02-15T12:50:10;12.60;99.90
23717;DHT22;22094;52.130;5.598;2023-02-15T12:55:24;12.80;99.90
23717;DHT22;22094;52.130;5.598;2023-02-15T13:00:31;12.50;99.90
23717;DHT22;22094;52.130;5.598;2023-02-15T13:02:58;12.60;99.90
23717;DHT22;22094;52.130;5.598;2023-02-15T13:05:37;12.60;99.90
23717;DHT22;22094;52.130;5.598;2023-02-15T13:10:39;15.10;99.90
23717;DHT22;22094;52.130;5.598;2023-02-15T13:13:27;11.90;99.90
23717;DHT22;22094;52.130;5.598;2023-02-15T13:16:09;11.40;99.90
23717;DHT22;22094;52.130;5.598;2023-02-15T13:18:38;14.10;99.90
23717;DHT22;22094;52.130;5.598;2023-02-15T13:21:16;12.20;99.90
23717;DHT22;22094;52.130;5.598;2023-02-15T13:23:48;12.20;99.90
23717;DHT22;22094;52.130;5.598;2023-02-15T13:26:21;12.40;99.90
23717;DHT22;22094;52.130;5.598;2023-02-15T13:28:51;12.40;99.90
23717;DHT22;22094;52.130;5.598;2023-02-15T13:31:20;11.30;99.90
23717;DHT22;22094;52.130;5.598;2023-02-15T13:34:02;14.30;99.90
23717;DHT22;22094;52.130;5.598;2023-02-15T13:44:42;11.30;99.90
23717;DHT22;22094;52.130;5.598;2023-02-15T13:47:24;13.10;99.90
23717;DHT22;22094;52.130;5.598;2023-02-15T13:50:28;12.30;99.90
23717;DHT22;22094;52.130;5.598;2023-02-15T13:53:10;12.00;99.90
23717;DHT22;22094;52.130;5.598;2023-02-15T13:58:48;14.60;99.90
23717;DHT22;22094;52.130;5.598;2023-02-15T14:12:43;12.30;99.90
23717;DHT22;22094;52.130;5.598;2023-02-15T14:15:18;15.00;99.90
23717;DHT22;22094;52.130;5.598;2023-02-15T14:25:49;12.50;99.90
23717;DHT22;22094;52.130;5.598;2023-02-15T14:28:22;12.60;99.90
23717;DHT22;22094;52.130;5.598;2023-02-15T14:30:54;12.50;99.90
23717;DHT22;22094;52.130;5.598;2023-02-15T14:33:35;12.20;99.90
23717;DHT22;22094;52.130;5.598;2023-02-15T14:36:03;9.50;99.90
23717;DHT22;22094;52.130;5.598;2023-02-15T14:41:15;12.50;99.90
23717;DHT22;22094;52.130;5.598;2023-02-15T15:07:54;14.40;99.90
23717;DHT22;22094;52.130;5.598;2023-02-15T15:12:48;14.30;99.90
23717;DHT22;22094;52.130;5.598;2023-02-15T15:15:34;9.70;99.90
23717;DHT22;22094;52.130;5.598;2023-02-15T15:20:44;11.70;99.90
23717;DHT22;22094;52.130;5.598;2023-02-15T15:25:46;12.00;99.90
23717;DHT22;22094;52.130;5.598;2023-02-15T15:39:33;11.40;99.90
23717;DHT22;22094;52.130;5.598;2023-02-15T15:47:22;11.20;99.90
23717;DHT22;22094;52.130;5.598;2023-02-15T15:49:54;11.20;99.90
23717;DHT22;22094;52.130;5.598;2023-02-15T15:52:21;11.20;99.90
23717;DHT22;22094;52.130;5.598;2023-02-15T15:54:51;11.30;99.90
23717;DHT22;22094;52.130;5.598;2023-02-15T15:57:34;11.10;99.90
23717;DHT22;22094;52.130;5.598;2023-02-15T16:00:04;12.50;99.90
23717;DHT22;22094;52.130;5.598;2023-02-15T16:02:31;11.00;99.90
23717;DHT22;22094;52.130;5.598;2023-02-15T16:05:07;10.90;99.90
23717;DHT22;22094;52.130;5.598;2023-02-15T16:10:01;10.80;99.90
23717;DHT22;22094;52.130;5.598;2023-02-15T16:12:38;10.70;99.90
23717;DHT22;22094;52.130;5.598;2023-02-15T16:15:15;10.40;99.90
23717;DHT22;22094;52.130;5.598;2023-02-15T16:17:43;10.50;99.90
23717;DHT22;22094;52.130;5.598;2023-02-15T16:20:17;7.60;99.90
23717;DHT22;22094;52.130;5.598;2023-02-15T16:22:45;10.40;99.90
23717;DHT22;22094;52.130;5.598;2023-02-15T16:27:55;10.10;99.90
23717;DHT22;22094;52.130;5.598;2023-02-15T16:30:29;10.00;99.90
23717;DHT22;22094;52.130;5.598;2023-02-15T16:33:15;10.00;99.90
23717;DHT22;22094;52.130;5.598;2023-02-15T16:35:56;9.80;99.90
23717;DHT22;22094;52.130;5.598;2023-02-15T16:41:08;9.70;99.90
23717;DHT22;22094;52.130;5.598;2023-02-15T16:43:34;9.60;99.90
23717;DHT22;22094;52.130;5.598;2023-02-15T16:46:08;9.50;99.90
23717;DHT22;22094;52.130;5.598;2023-02-15T16:48:39;9.40;99.90
23717;DHT22;22094;52.130;5.598;2023-02-15T16:51:07;9.30;99.90
23717;DHT22;22094;52.130;5.598;2023-02-15T16:53:34;9.40;99.90
23717;DHT22;22094;52.130;5.598;2023-02-15T16:56:03;9.20;99.90
23717;DHT22;22094;52.130;5.598;2023-02-15T16:58:42;9.20;99.90
23717;DHT22;22094;52.130;5.598;2023-02-15T17:01:14;9.20;99.90
23717;DHT22;22094;52.130;5.598;2023-02-15T17:03:41;9.10;99.90
23717;DHT22;22094;52.130;5.598;2023-02-15T17:06:25;9.10;99.90
23717;DHT22;22094;52.130;5.598;2023-02-15T17:08:52;9.00;99.90
23717;DHT22;22094;52.130;5.598;2023-02-15T17:11:22;9.00;99.90
23717;DHT22;22094;52.130;5.598;2023-02-15T17:16:33;8.90;99.90
23717;DHT22;22094;52.130;5.598;2023-02-15T17:19:28;8.80;99.90
23717;DHT22;22094;52.130;5.598;2023-02-15T17:21:57;8.80;99.90
23717;DHT22;22094;52.130;5.598;2023-02-15T17:24:34;8.80;99.90
23717;DHT22;22094;52.130;5.598;2023-02-15T17:27:15;8.70;99.90
23717;DHT22;22094;52.130;5.598;2023-02-15T17:29:47;8.70;99.90
23717;DHT22;22094;52.130;5.598;2023-02-15T17:32:19;8.80;99.90
23717;DHT22;22094;52.130;5.598;2023-02-15T17:40:25;8.70;99.90
23717;DHT22;22094;52.130;5.598;2023-02-15T17:42:52;8.60;99.90
23717;DHT22;22094;52.130;5.598;2023-02-15T17:45:18;8.50;99.90
23717;DHT22;22094;52.130;5.598;2023-02-15T17:47:46;8.70;99.90
23717;DHT22;22094;52.130;5.598;2023-02-15T17:50:23;8.30;99.90
23717;DHT22;22094;52.130;5.598;2023-02-15T17:52:50;8.30;99.90
23717;DHT22;22094;52.130;5.598;2023-02-15T17:55:18;8.30;99.90
23717;DHT22;22094;52.130;5.598;2023-02-15T17:58:01;8.30;99.90
23717;DHT22;22094;52.130;5.598;2023-02-15T18:00:27;8.30;99.90
23717;DHT22;22094;52.130;5.598;2023-02-15T18:03:12;8.30;99.90
23717;DHT22;22094;52.130;5.598;2023-02-15T18:05:57;8.20;99.90
23717;DHT22;22094;52.130;5.598;2023-02-15T18:08:41;8.10;99.90
23717;DHT22;22094;52.130;5.598;2023-02-15T18:11:25;8.00;99.90
23717;DHT22;22094;52.130;5.598;2023-02-15T18:14:08;7.80;99.90
23717;DHT22;22094;52.130;5.598;2023-02-15T18:16:40;7.70;99.90
23717;DHT22;22094;52.130;5.598;2023-02-15T18:19:19;7.70;99.90
23717;DHT22;22094;52.130;5.598;2023-02-15T18:21:46;7.60;99.90
23717;DHT22;22094;52.130;5.598;2023-02-15T18:24:23;7.40;99.90
23717;DHT22;22094;52.130;5.598;2023-02-15T18:26:50;7.30;99.90
23717;DHT22;22094;52.130;5.598;2023-02-15T18:29:16;7.30;99.90
23717;DHT22;22094;52.130;5.598;2023-02-15T18:31:43;7.10;99.90
23717;DHT22;22094;52.130;5.598;2023-02-15T18:34:22;7.20;99.90
23717;DHT22;22094;52.130;5.598;2023-02-15T18:36:49;6.90;99.90
23717;DHT22;22094;52.130;5.598;2023-02-15T18:39:39;6.80;99.90
23717;DHT22;22094;52.130;5.598;2023-02-15T18:42:13;6.70;99.90
23717;DHT22;22094;52.130;5.598;2023-02-15T18:44:42;6.60;99.90
23717;DHT22;22094;52.130;5.598;2023-02-15T18:47:08;6.60;99.90
23717;DHT22;22094;52.130;5.598;2023-02-15T18:49:33;6.60;99.90
23717;DHT22;22094;52.130;5.598;2023-02-15T18:52:00;6.60;99.90
23717;DHT22;22094;52.130;5.598;2023-02-15T18:54:26;6.70;99.90
23717;DHT22;22094;52.130;5.598;2023-02-15T18:56:56;6.70;99.90
23717;DHT22;22094;52.130;5.598;2023-02-15T18:59:24;6.60;99.90
23717;DHT22;22094;52.130;5.598;2023-02-15T19:01:50;6.60;99.90
23717;DHT22;22094;52.130;5.598;2023-02-15T19:04:16;6.60;99.90
23717;DHT22;22094;52.130;5.598;2023-02-15T19:06:48;6.50;99.90
23717;DHT22;22094;52.130;5.598;2023-02-15T19:09:17;6.50;99.90
23717;DHT22;22094;52.130;5.598;2023-02-15T19:11:50;6.50;99.90
23717;DHT22;22094;52.130;5.598;2023-02-15T19:16:47;6.70;99.90
23717;DHT22;22094;52.130;5.598;2023-02-15T19:19:13;6.70;99.90
23717;DHT22;22094;52.130;5.598;2023-02-15T19:21:38;6.70;99.90
23717;DHT22;22094;52.130;5.598;2023-02-15T19:24:07;6.80;99.90
23717;DHT22;22094;52.130;5.598;2023-02-15T19:26:37;6.80;99.90
23717;DHT22;22094;52.130;5.598;2023-02-15T19:29:04;6.90;99.90
23717;DHT22;22094;52.130;5.598;2023-02-15T19:31:30;6.90;99.90
23717;DHT22;22094;52.130;5.598;2023-02-15T19:33:55;7.00;99.90
23717;DHT22;22094;52.130;5.598;2023-02-15T19:36:21;7.00;99.90
23717;DHT22;22094;52.130;5.598;2023-02-15T19:38:49;7.00;99.90
23717;DHT22;22094;52.130;5.598;2023-02-15T19:41:36;7.00;99.90